sensor_id;sensor_type;location;lat;lon;timestamp;P1;durP1;ratioP1;P2;durP2;ratioP2
29958;SDS011;16815;51.100;6.516;2022-11-20T00:01:12;15.90;;;13.43;;
29958;SDS011;16815;51.100;6.516;2022-11-20T00:03:38;16.70;;;14.20;;
29958;SDS011;16815;51.100;6.516;2022-11-20T00:06:05;17.67;;;14.03;;
29958;SDS011;16815;51.100;6.516;2022-11-20T00:08:32;18.53;;;14.80;;
29958;SDS011;16815;51.100;6.516;2022-11-20T00:11:02;17.47;;;14.70;;
29958;SDS011;16815;51.100;6.516;2022-11-20T00:13:28;18.83;;;14.77;;
29958;SDS011;16815;51.100;6.516;2022-11-20T00:15:57;17.23;;;14.83;;
29958;SDS011;16815;51.100;6.516;2022-11-20T00:18:24;18.13;;;14.77;;
29958;SDS011;16815;51.100;6.516;2022-11-20T00:20:50;18.80;;;14.60;;
29958;SDS011;16815;51.100;6.516;2022-11-20T00:23:16;17.27;;;14.47;;
29958;SDS011;16815;51.100;6.516;2022-11-20T00:25:42;18.97;;;14.80;;
29958;SDS011;16815;51.100;6.516;2022-11-20T00:28:08;18.57;;;14.30;;
29958;SDS011;16815;51.100;6.516;2022-11-20T00:30:34;15.30;;;13.20;;
29958;SDS011;16815;51.100;6.516;2022-11-20T00:33:00;19.10;;;14.93;;
29958;SDS011;16815;51.100;6.516;2022-11-20T00:35:25;18.17;;;14.40;;
29958;SDS011;16815;51.100;6.516;2022-11-20T00:37:51;19.20;;;14.60;;
29958;SDS011;16815;51.100;6.516;2022-11-20T00:40:17;20.57;;;13.63;;
29958;SDS011;16815;51.100;6.516;2022-11-20T00:42:43;17.77;;;14.60;;
29958;SDS011;16815;51.100;6.516;2022-11-20T00:45:09;17.40;;;13.83;;
29958;SDS011;16815;51.100;6.516;2022-11-20T00:47:35;18.37;;;14.00;;
29958;SDS011;16815;51.100;6.516;2022-11-20T00:50:01;17.10;;;14.13;;
29958;SDS011;16815;51.100;6.516;2022-11-20T00:52:27;17.70;;;14.47;;
29958;SDS011;16815;51.100;6.516;2022-11-20T00:54:53;17.03;;;14.03;;
29958;SDS011;16815;51.100;6.516;2022-11-20T00:57:19;17.63;;;14.33;;
29958;SDS011;16815;51.100;6.516;2022-11-20T00:59:45;18.57;;;13.93;;
29958;SDS011;16815;51.100;6.516;2022-11-20T01:02:11;17.73;;;14.53;;
29958;SDS011;16815;51.100;6.516;2022-11-20T01:04:37;16.60;;;13.93;;
29958;SDS011;16815;51.100;6.516;2022-11-20T01:07:03;19.57;;;14.57;;
29958;SDS011;16815;51.100;6.516;2022-11-20T01:09:29;18.17;;;14.50;;
29958;SDS011;16815;51.100;6.516;2022-11-20T01:11:55;18.23;;;14.77;;
29958;SDS011;16815;51.100;6.516;2022-11-20T01:14:21;17.13;;;14.23;;
29958;SDS011;16815;51.100;6.516;2022-11-20T01:16:48;19.23;;;15.60;;
29958;SDS011;16815;51.100;6.516;2022-11-20T01:19:15;19.00;;;14.23;;
29958;SDS011;16815;51.100;6.516;2022-11-20T01:21:43;18.73;;;15.10;;
29958;SDS011;16815;51.100;6.516;2022-11-20T01:24:12;14.87;;;13.27;;
29958;SDS011;16815;51.100;6.516;2022-11-20T01:26:40;18.27;;;14.80;;
29958;SDS011;16815;51.100;6.516;2022-11-20T01:29:06;18.10;;;14.57;;
29958;SDS011;16815;51.100;6.516;2022-11-20T01:31:33;17.53;;;14.37;;
29958;SDS011;16815;51.100;6.516;2022-11-20T01:34:04;18.07;;;14.30;;
29958;SDS011;16815;51.100;6.516;2022-11-20T01:36:30;17.10;;;14.67;;
29958;SDS011;16815;51.100;6.516;2022-11-20T01:38:58;17.30;;;13.70;;
29958;SDS011;16815;51.100;6.516;2022-11-20T01:41:25;15.97;;;13.80;;
29958;SDS011;16815;51.100;6.516;2022-11-20T01:44:10;16.43;;;14.03;;
29958;SDS011;16815;51.100;6.516;2022-11-20T01:46:37;16.53;;;14.63;;
29958;SDS011;16815;51.100;6.516;2022-11-20T01:49:05;17.13;;;14.30;;
29958;SDS011;16815;51.100;6.516;2022-11-20T01:51:41;16.93;;;14.43;;
29958;SDS011;16815;51.100;6.516;2022-11-20T01:54:12;18.00;;;15.17;;
29958;SDS011;16815;51.100;6.516;2022-11-20T01:56:40;18.00;;;14.57;;
29958;SDS011;16815;51.100;6.516;2022-11-20T01:59:08;19.97;;;15.13;;
29958;SDS011;16815;51.100;6.516;2022-11-20T02:01:35;18.13;;;15.57;;
29958;SDS011;16815;51.100;6.516;2022-11-20T02:04:01;17.07;;;14.43;;
29958;SDS011;16815;51.100;6.516;2022-11-20T02:07:27;19.23;;;15.60;;
29958;SDS011;16815;51.100;6.516;2022-11-20T02:09:22;15.80;;;13.87;;
29958;SDS011;16815;51.100;6.516;2022-11-20T02:11:48;17.30;;;14.23;;
29958;SDS011;16815;51.100;6.516;2022-11-20T02:14:14;18.50;;;14.97;;
29958;SDS011;16815;51.100;6.516;2022-11-20T02:16:43;16.67;;;13.70;;
29958;SDS011;16815;51.100;6.516;2022-11-20T02:19:22;19.93;;;14.47;;
29958;SDS011;16815;51.100;6.516;2022-11-20T02:24:32;19.03;;;14.97;;
29958;SDS011;16815;51.100;6.516;2022-11-20T02:27:03;20.70;;;14.77;;
29958;SDS011;16815;51.100;6.516;2022-11-20T02:29:40;19.07;;;14.83;;
29958;SDS011;16815;51.100;6.516;2022-11-20T02:32:17;19.43;;;15.87;;
29958;SDS011;16815;51.100;6.516;2022-11-20T02:34:43;19.47;;;14.40;;
29958;SDS011;16815;51.100;6.516;2022-11-20T02:37:09;17.00;;;14.20;;
29958;SDS011;16815;51.100;6.516;2022-11-20T02:39:35;17.37;;;15.50;;
29958;SDS011;16815;51.100;6.516;2022-11-20T02:42:01;17.47;;;14.63;;
29958;SDS011;16815;51.100;6.516;2022-11-20T02:44:27;19.50;;;14.87;;
29958;SDS011;16815;51.100;6.516;2022-11-20T02:46:53;16.93;;;13.50;;
29958;SDS011;16815;51.100;6.516;2022-11-20T02:49:19;18.13;;;14.90;;
29958;SDS011;16815;51.100;6.516;2022-11-20T02:51:45;17.80;;;13.90;;
29958;SDS011;16815;51.100;6.516;2022-11-20T02:54:10;17.13;;;13.97;;
29958;SDS011;16815;51.100;6.516;2022-11-20T02:56:37;18.03;;;14.63;;
29958;SDS011;16815;51.100;6.516;2022-11-20T02:59:03;21.20;;;15.53;;
29958;SDS011;16815;51.100;6.516;2022-11-20T03:01:29;16.87;;;13.90;;
29958;SDS011;16815;51.100;6.516;2022-11-20T03:03:55;20.10;;;16.20;;
29958;SDS011;16815;51.100;6.516;2022-11-20T03:06:21;18.87;;;14.83;;
29958;SDS011;16815;51.100;6.516;2022-11-20T03:08:47;16.40;;;13.97;;
29958;SDS011;16815;51.100;6.516;2022-11-20T03:11:13;16.33;;;14.20;;
29958;SDS011;16815;51.100;6.516;2022-11-20T03:13:39;19.93;;;14.77;;
29958;SDS011;16815;51.100;6.516;2022-11-20T03:16:12;17.80;;;14.50;;
29958;SDS011;16815;51.100;6.516;2022-11-20T03:18:39;15.73;;;14.00;;
29958;SDS011;16815;51.100;6.516;2022-11-20T03:21:05;17.47;;;14.80;;
29958;SDS011;16815;51.100;6.516;2022-11-20T03:23:32;18.40;;;15.10;;
29958;SDS011;16815;51.100;6.516;2022-11-20T03:26:11;18.27;;;15.30;;
29958;SDS011;16815;51.100;6.516;2022-11-20T03:28:37;16.63;;;13.17;;
29958;SDS011;16815;51.100;6.516;2022-11-20T03:31:07;19.33;;;14.33;;
29958;SDS011;16815;51.100;6.516;2022-11-20T03:33:33;18.03;;;14.87;;
29958;SDS011;16815;51.100;6.516;2022-11-20T03:36:03;20.33;;;14.90;;
29958;SDS011;16815;51.100;6.516;2022-11-20T03:38:30;18.23;;;14.80;;
29958;SDS011;16815;51.100;6.516;2022-11-20T03:41:04;18.57;;;15.30;;
29958;SDS011;16815;51.100;6.516;2022-11-20T03:43:30;18.73;;;15.30;;
29958;SDS011;16815;51.100;6.516;2022-11-20T03:45:56;19.17;;;14.70;;
29958;SDS011;16815;51.100;6.516;2022-11-20T03:48:22;19.90;;;15.57;;
29958;SDS011;16815;51.100;6.516;2022-11-20T03:50:49;18.17;;;15.20;;
29958;SDS011;16815;51.100;6.516;2022-11-20T03:53:15;18.67;;;14.90;;
29958;SDS011;16815;51.100;6.516;2022-11-20T03:55:41;19.63;;;15.73;;
29958;SDS011;16815;51.100;6.516;2022-11-20T03:58:07;19.80;;;15.67;;
29958;SDS011;16815;51.100;6.516;2022-11-20T04:00:33;19.00;;;15.80;;
29958;SDS011;16815;51.100;6.516;2022-11-20T04:03:00;18.50;;;14.93;;
29958;SDS011;16815;51.100;6.516;2022-11-20T04:05:26;18.53;;;14.80;;
29958;SDS011;16815;51.100;6.516;2022-11-20T04:07:52;17.27;;;14.77;;
29958;SDS011;16815;51.100;6.516;2022-11-20T04:10:18;16.10;;;14.40;;
29958;SDS011;16815;51.100;6.516;2022-11-20T04:12:44;17.30;;;15.07;;
29958;SDS011;16815;51.100;6.516;2022-11-20T04:15:10;18.47;;;14.73;;
29958;SDS011;16815;51.100;6.516;2022-11-20T04:17:36;19.17;;;15.10;;
29958;SDS011;16815;51.100;6.516;2022-11-20T04:20:02;17.30;;;13.77;;
29958;SDS011;16815;51.100;6.516;2022-11-20T04:22:29;18.73;;;15.10;;
29958;SDS011;16815;51.100;6.516;2022-11-20T04:24:54;19.73;;;15.03;;
29958;SDS011;16815;51.100;6.516;2022-11-20T04:27:20;20.53;;;14.87;;
29958;SDS011;16815;51.100;6.516;2022-11-20T04:29:46;17.17;;;15.17;;
29958;SDS011;16815;51.100;6.516;2022-11-20T04:32:12;18.37;;;14.60;;
29958;SDS011;16815;51.100;6.516;2022-11-20T04:34:38;17.37;;;13.90;;
29958;SDS011;16815;51.100;6.516;2022-11-20T04:37:04;17.70;;;14.67;;
29958;SDS011;16815;51.100;6.516;2022-11-20T04:39:30;16.10;;;13.83;;
29958;SDS011;16815;51.100;6.516;2022-11-20T04:41:56;18.53;;;14.50;;
29958;SDS011;16815;51.100;6.516;2022-11-20T04:44:42;18.60;;;15.43;;
29958;SDS011;16815;51.100;6.516;2022-11-20T04:47:08;22.13;;;15.10;;
29958;SDS011;16815;51.100;6.516;2022-11-20T04:49:34;21.03;;;15.17;;
29958;SDS011;16815;51.100;6.516;2022-11-20T04:52:00;19.73;;;15.70;;
29958;SDS011;16815;51.100;6.516;2022-11-20T04:54:26;17.87;;;14.27;;
29958;SDS011;16815;51.100;6.516;2022-11-20T04:56:52;19.13;;;15.47;;
29958;SDS011;16815;51.100;6.516;2022-11-20T04:59:18;20.70;;;15.90;;
29958;SDS011;16815;51.100;6.516;2022-11-20T05:01:44;16.33;;;13.70;;
29958;SDS011;16815;51.100;6.516;2022-11-20T05:04:10;18.30;;;14.60;;
29958;SDS011;16815;51.100;6.516;2022-11-20T05:06:36;19.40;;;14.17;;
29958;SDS011;16815;51.100;6.516;2022-11-20T05:09:02;18.60;;;15.83;;
29958;SDS011;16815;51.100;6.516;2022-11-20T05:11:28;17.30;;;14.00;;
29958;SDS011;16815;51.100;6.516;2022-11-20T05:13:54;20.97;;;15.90;;
29958;SDS011;16815;51.100;6.516;2022-11-20T05:16:21;19.37;;;15.13;;
29958;SDS011;16815;51.100;6.516;2022-11-20T05:18:48;16.97;;;14.27;;
29958;SDS011;16815;51.100;6.516;2022-11-20T05:21:14;17.83;;;14.33;;
29958;SDS011;16815;51.100;6.516;2022-11-20T05:23:41;18.97;;;15.20;;
29958;SDS011;16815;51.100;6.516;2022-11-20T05:26:08;19.20;;;15.63;;
29958;SDS011;16815;51.100;6.516;2022-11-20T05:28:37;18.47;;;15.53;;
29958;SDS011;16815;51.100;6.516;2022-11-20T05:31:04;19.60;;;15.53;;
29958;SDS011;16815;51.100;6.516;2022-11-20T05:33:30;20.97;;;15.47;;
29958;SDS011;16815;51.100;6.516;2022-11-20T05:35:59;17.17;;;15.30;;
29958;SDS011;16815;51.100;6.516;2022-11-20T05:38:25;23.50;;;15.93;;
29958;SDS011;16815;51.100;6.516;2022-11-20T05:40:51;18.77;;;13.97;;
29958;SDS011;16815;51.100;6.516;2022-11-20T05:43:17;20.37;;;15.67;;
29958;SDS011;16815;51.100;6.516;2022-11-20T05:45:43;18.00;;;14.87;;
29958;SDS011;16815;51.100;6.516;2022-11-20T05:48:16;21.17;;;15.80;;
29958;SDS011;16815;51.100;6.516;2022-11-20T05:50:42;19.60;;;15.63;;
29958;SDS011;16815;51.100;6.516;2022-11-20T05:53:08;18.17;;;15.10;;
29958;SDS011;16815;51.100;6.516;2022-11-20T05:55:34;21.43;;;16.73;;
29958;SDS011;16815;51.100;6.516;2022-11-20T05:58:00;20.50;;;16.17;;
29958;SDS011;16815;51.100;6.516;2022-11-20T06:00:26;18.77;;;15.53;;
29958;SDS011;16815;51.100;6.516;2022-11-20T06:02:52;18.90;;;15.60;;
29958;SDS011;16815;51.100;6.516;2022-11-20T06:05:18;18.77;;;15.23;;
29958;SDS011;16815;51.100;6.516;2022-11-20T06:07:44;22.10;;;15.97;;
29958;SDS011;16815;51.100;6.516;2022-11-20T06:10:10;22.30;;;15.97;;
29958;SDS011;16815;51.100;6.516;2022-11-20T06:12:36;18.93;;;15.30;;
29958;SDS011;16815;51.100;6.516;2022-11-20T06:15:02;19.30;;;15.17;;
29958;SDS011;16815;51.100;6.516;2022-11-20T06:17:28;17.90;;;15.23;;
29958;SDS011;16815;51.100;6.516;2022-11-20T06:19:54;20.03;;;15.33;;
29958;SDS011;16815;51.100;6.516;2022-11-20T06:22:20;18.73;;;16.03;;
29958;SDS011;16815;51.100;6.516;2022-11-20T06:24:46;18.50;;;15.47;;
29958;SDS011;16815;51.100;6.516;2022-11-20T06:27:12;21.47;;;16.57;;
29958;SDS011;16815;51.100;6.516;2022-11-20T06:29:38;22.50;;;15.90;;
29958;SDS011;16815;51.100;6.516;2022-11-20T06:32:04;20.30;;;15.80;;
29958;SDS011;16815;51.100;6.516;2022-11-20T06:34:30;17.97;;;15.27;;
29958;SDS011;16815;51.100;6.516;2022-11-20T06:36:56;21.20;;;15.23;;
29958;SDS011;16815;51.100;6.516;2022-11-20T06:39:22;20.33;;;15.80;;
29958;SDS011;16815;51.100;6.516;2022-11-20T06:41:48;20.07;;;16.47;;
29958;SDS011;16815;51.100;6.516;2022-11-20T06:44:14;20.97;;;15.87;;
29958;SDS011;16815;51.100;6.516;2022-11-20T06:46:39;19.87;;;15.23;;
29958;SDS011;16815;51.100;6.516;2022-11-20T06:49:05;19.87;;;16.17;;
29958;SDS011;16815;51.100;6.516;2022-11-20T06:51:31;21.60;;;16.40;;
29958;SDS011;16815;51.100;6.516;2022-11-20T06:53:57;19.20;;;15.77;;
29958;SDS011;16815;51.100;6.516;2022-11-20T06:56:24;20.37;;;16.30;;
29958;SDS011;16815;51.100;6.516;2022-11-20T06:58:50;18.97;;;14.97;;
29958;SDS011;16815;51.100;6.516;2022-11-20T07:01:16;20.90;;;16.33;;
29958;SDS011;16815;51.100;6.516;2022-11-20T07:03:42;22.13;;;15.80;;
29958;SDS011;16815;51.100;6.516;2022-11-20T07:06:08;20.77;;;16.20;;
29958;SDS011;16815;51.100;6.516;2022-11-20T07:08:34;22.07;;;16.33;;
29958;SDS011;16815;51.100;6.516;2022-11-20T07:11:01;21.57;;;16.87;;
29958;SDS011;16815;51.100;6.516;2022-11-20T07:13:28;19.97;;;16.30;;
29958;SDS011;16815;51.100;6.516;2022-11-20T07:15:54;20.20;;;16.43;;
29958;SDS011;16815;51.100;6.516;2022-11-20T07:18:20;20.67;;;16.30;;
29958;SDS011;16815;51.100;6.516;2022-11-20T07:20:46;22.53;;;17.40;;
29958;SDS011;16815;51.100;6.516;2022-11-20T07:23:12;19.30;;;15.37;;
29958;SDS011;16815;51.100;6.516;2022-11-20T07:25:38;23.07;;;16.13;;
29958;SDS011;16815;51.100;6.516;2022-11-20T07:28:04;19.67;;;16.13;;
29958;SDS011;16815;51.100;6.516;2022-11-20T07:30:30;22.00;;;16.30;;
29958;SDS011;16815;51.100;6.516;2022-11-20T07:32:56;22.70;;;16.83;;
29958;SDS011;16815;51.100;6.516;2022-11-20T07:35:23;21.83;;;17.03;;
29958;SDS011;16815;51.100;6.516;2022-11-20T07:37:49;20.63;;;16.47;;
29958;SDS011;16815;51.100;6.516;2022-11-20T07:40:15;19.87;;;16.97;;
29958;SDS011;16815;51.100;6.516;2022-11-20T07:42:51;20.10;;;16.37;;
29958;SDS011;16815;51.100;6.516;2022-11-20T07:45:17;26.00;;;17.50;;
29958;SDS011;16815;51.100;6.516;2022-11-20T07:47:43;22.90;;;17.70;;
29958;SDS011;16815;51.100;6.516;2022-11-20T07:50:10;22.00;;;17.70;;
29958;SDS011;16815;51.100;6.516;2022-11-20T07:52:36;22.57;;;18.07;;
29958;SDS011;16815;51.100;6.516;2022-11-20T07:55:02;20.70;;;16.03;;
29958;SDS011;16815;51.100;6.516;2022-11-20T07:57:28;22.07;;;17.47;;
29958;SDS011;16815;51.100;6.516;2022-11-20T07:59:54;18.80;;;16.57;;
29958;SDS011;16815;51.100;6.516;2022-11-20T08:02:20;24.13;;;17.30;;
29958;SDS011;16815;51.100;6.516;2022-11-20T08:04:46;20.37;;;16.90;;
29958;SDS011;16815;51.100;6.516;2022-11-20T08:07:12;20.13;;;16.40;;
29958;SDS011;16815;51.100;6.516;2022-11-20T08:09:38;20.07;;;16.03;;
29958;SDS011;16815;51.100;6.516;2022-11-20T08:12:04;21.80;;;16.60;;
29958;SDS011;16815;51.100;6.516;2022-11-20T08:14:48;24.60;;;18.43;;
29958;SDS011;16815;51.100;6.516;2022-11-20T08:17:14;23.93;;;18.03;;
29958;SDS011;16815;51.100;6.516;2022-11-20T08:19:40;22.10;;;16.40;;
29958;SDS011;16815;51.100;6.516;2022-11-20T08:22:06;23.43;;;17.20;;
29958;SDS011;16815;51.100;6.516;2022-11-20T08:24:32;21.37;;;17.40;;
29958;SDS011;16815;51.100;6.516;2022-11-20T08:26:58;23.90;;;18.30;;
29958;SDS011;16815;51.100;6.516;2022-11-20T08:29:27;22.80;;;18.17;;
29958;SDS011;16815;51.100;6.516;2022-11-20T08:31:53;24.40;;;18.33;;
29958;SDS011;16815;51.100;6.516;2022-11-20T08:34:19;22.33;;;17.97;;
29958;SDS011;16815;51.100;6.516;2022-11-20T08:36:45;21.70;;;16.43;;
29958;SDS011;16815;51.100;6.516;2022-11-20T08:39:13;22.30;;;17.03;;
29958;SDS011;16815;51.100;6.516;2022-11-20T08:41:39;26.43;;;17.20;;
29958;SDS011;16815;51.100;6.516;2022-11-20T08:44:06;21.27;;;16.70;;
29958;SDS011;16815;51.100;6.516;2022-11-20T08:46:33;19.80;;;16.40;;
29958;SDS011;16815;51.100;6.516;2022-11-20T08:49:01;22.70;;;17.23;;
29958;SDS011;16815;51.100;6.516;2022-11-20T08:51:27;21.87;;;16.37;;
29958;SDS011;16815;51.100;6.516;2022-11-20T08:53:53;21.97;;;16.70;;
29958;SDS011;16815;51.100;6.516;2022-11-20T08:56:19;24.00;;;17.07;;
29958;SDS011;16815;51.100;6.516;2022-11-20T08:58:44;25.30;;;18.03;;
29958;SDS011;16815;51.100;6.516;2022-11-20T09:01:10;28.07;;;17.13;;
29958;SDS011;16815;51.100;6.516;2022-11-20T09:03:36;27.13;;;17.57;;
29958;SDS011;16815;51.100;6.516;2022-11-20T09:06:04;31.07;;;19.73;;
29958;SDS011;16815;51.100;6.516;2022-11-20T09:08:30;28.23;;;17.97;;
29958;SDS011;16815;51.100;6.516;2022-11-20T09:10:57;31.37;;;20.17;;
29958;SDS011;16815;51.100;6.516;2022-11-20T09:13:23;33.23;;;21.67;;
29958;SDS011;16815;51.100;6.516;2022-11-20T09:16:00;35.33;;;21.17;;
29958;SDS011;16815;51.100;6.516;2022-11-20T09:18:26;31.00;;;21.03;;
29958;SDS011;16815;51.100;6.516;2022-11-20T09:20:56;34.67;;;22.03;;
29958;SDS011;16815;51.100;6.516;2022-11-20T09:23:22;34.63;;;22.77;;
29958;SDS011;16815;51.100;6.516;2022-11-20T09:25:49;35.33;;;21.50;;
29958;SDS011;16815;51.100;6.516;2022-11-20T09:28:15;36.53;;;21.30;;
29958;SDS011;16815;51.100;6.516;2022-11-20T09:30:43;33.70;;;20.63;;
29958;SDS011;16815;51.100;6.516;2022-11-20T09:33:09;35.10;;;21.03;;
29958;SDS011;16815;51.100;6.516;2022-11-20T09:35:35;34.60;;;23.00;;
29958;SDS011;16815;51.100;6.516;2022-11-20T09:38:04;34.67;;;22.13;;
29958;SDS011;16815;51.100;6.516;2022-11-20T09:40:31;28.70;;;19.03;;
29958;SDS011;16815;51.100;6.516;2022-11-20T09:43:02;26.37;;;19.07;;
29958;SDS011;16815;51.100;6.516;2022-11-20T09:45:43;31.10;;;18.50;;
29958;SDS011;16815;51.100;6.516;2022-11-20T09:48:17;26.63;;;18.00;;
29958;SDS011;16815;51.100;6.516;2022-11-20T09:50:47;31.33;;;18.80;;
29958;SDS011;16815;51.100;6.516;2022-11-20T09:53:19;29.53;;;18.00;;
29958;SDS011;16815;51.100;6.516;2022-11-20T09:55:46;32.20;;;18.90;;
29958;SDS011;16815;51.100;6.516;2022-11-20T09:58:16;31.67;;;19.60;;
29958;SDS011;16815;51.100;6.516;2022-11-20T10:00:44;28.53;;;19.07;;
29958;SDS011;16815;51.100;6.516;2022-11-20T10:05:41;24.83;;;17.40;;
29958;SDS011;16815;51.100;6.516;2022-11-20T10:08:15;27.13;;;18.03;;
29958;SDS011;16815;51.100;6.516;2022-11-20T10:21:22;27.97;;;17.73;;
29958;SDS011;16815;51.100;6.516;2022-11-20T10:26:44;25.50;;;17.57;;
29958;SDS011;16815;51.100;6.516;2022-11-20T10:29:12;30.20;;;18.37;;
29958;SDS011;16815;51.100;6.516;2022-11-20T10:31:42;25.67;;;17.27;;
29958;SDS011;16815;51.100;6.516;2022-11-20T10:36:43;25.60;;;16.17;;
29958;SDS011;16815;51.100;6.516;2022-11-20T10:39:18;24.53;;;16.40;;
29958;SDS011;16815;51.100;6.516;2022-11-20T10:41:47;24.03;;;15.67;;
29958;SDS011;16815;51.100;6.516;2022-11-20T10:44:15;23.37;;;15.97;;
29958;SDS011;16815;51.100;6.516;2022-11-20T10:47:01;21.03;;;15.30;;
29958;SDS011;16815;51.100;6.516;2022-11-20T10:49:27;29.23;;;16.33;;
29958;SDS011;16815;51.100;6.516;2022-11-20T10:52:04;23.80;;;17.10;;
29958;SDS011;16815;51.100;6.516;2022-11-20T10:54:34;26.70;;;16.77;;
29958;SDS011;16815;51.100;6.516;2022-11-20T10:59:55;23.77;;;16.60;;
29958;SDS011;16815;51.100;6.516;2022-11-20T11:02:31;26.33;;;17.30;;
29958;SDS011;16815;51.100;6.516;2022-11-20T11:04:58;23.00;;;15.47;;
29958;SDS011;16815;51.100;6.516;2022-11-20T11:07:27;25.63;;;15.37;;
29958;SDS011;16815;51.100;6.516;2022-11-20T11:09:55;23.70;;;15.93;;
29958;SDS011;16815;51.100;6.516;2022-11-20T11:12:22;26.63;;;16.00;;
29958;SDS011;16815;51.100;6.516;2022-11-20T11:14:50;22.10;;;16.50;;
29958;SDS011;16815;51.100;6.516;2022-11-20T11:17:20;23.90;;;17.03;;
29958;SDS011;16815;51.100;6.516;2022-11-20T11:19:56;24.20;;;16.10;;
29958;SDS011;16815;51.100;6.516;2022-11-20T11:22:22;22.57;;;15.80;;
29958;SDS011;16815;51.100;6.516;2022-11-20T11:24:52;23.00;;;15.63;;
29958;SDS011;16815;51.100;6.516;2022-11-20T11:27:18;22.57;;;15.63;;
29958;SDS011;16815;51.100;6.516;2022-11-20T11:29:45;22.33;;;15.30;;
29958;SDS011;16815;51.100;6.516;2022-11-20T11:32:11;24.30;;;16.47;;
29958;SDS011;16815;51.100;6.516;2022-11-20T11:34:38;21.73;;;15.70;;
29958;SDS011;16815;51.100;6.516;2022-11-20T11:37:04;22.83;;;15.87;;
29958;SDS011;16815;51.100;6.516;2022-11-20T11:39:31;28.13;;;16.50;;
29958;SDS011;16815;51.100;6.516;2022-11-20T11:41:59;23.70;;;15.33;;
29958;SDS011;16815;51.100;6.516;2022-11-20T11:44:33;21.57;;;15.90;;
29958;SDS011;16815;51.100;6.516;2022-11-20T11:47:25;19.47;;;14.60;;
29958;SDS011;16815;51.100;6.516;2022-11-20T11:52:46;22.43;;;16.03;;
29958;SDS011;16815;51.100;6.516;2022-11-20T11:55:17;21.33;;;14.97;;
29958;SDS011;16815;51.100;6.516;2022-11-20T12:00:33;21.87;;;15.67;;
29958;SDS011;16815;51.100;6.516;2022-11-20T12:03:04;22.10;;;15.40;;
29958;SDS011;16815;51.100;6.516;2022-11-20T12:13:14;21.47;;;15.27;;
29958;SDS011;16815;51.100;6.516;2022-11-20T12:15:41;24.43;;;15.77;;
29958;SDS011;16815;51.100;6.516;2022-11-20T12:18:13;22.37;;;16.43;;
29958;SDS011;16815;51.100;6.516;2022-11-20T12:20:43;23.47;;;16.70;;
29958;SDS011;16815;51.100;6.516;2022-11-20T12:25:40;23.07;;;16.70;;
29958;SDS011;16815;51.100;6.516;2022-11-20T12:30:56;25.10;;;16.87;;
29958;SDS011;16815;51.100;6.516;2022-11-20T12:44:05;28.30;;;17.90;;
29958;SDS011;16815;51.100;6.516;2022-11-20T12:47:07;26.97;;;18.33;;
29958;SDS011;16815;51.100;6.516;2022-11-20T12:49:42;25.60;;;17.27;;
29958;SDS011;16815;51.100;6.516;2022-11-20T12:52:19;24.70;;;17.20;;
29958;SDS011;16815;51.100;6.516;2022-11-20T12:55:01;25.17;;;17.50;;
29958;SDS011;16815;51.100;6.516;2022-11-20T12:57:34;25.80;;;17.47;;
29958;SDS011;16815;51.100;6.516;2022-11-20T13:02:40;28.00;;;19.33;;
29958;SDS011;16815;51.100;6.516;2022-11-20T13:05:17;25.90;;;17.03;;
29958;SDS011;16815;51.100;6.516;2022-11-20T13:07:44;30.77;;;19.30;;
29958;SDS011;16815;51.100;6.516;2022-11-20T13:12:57;25.70;;;18.57;;
29958;SDS011;16815;51.100;6.516;2022-11-20T13:15:35;26.60;;;18.40;;
29958;SDS011;16815;51.100;6.516;2022-11-20T13:18:03;26.67;;;18.83;;
29958;SDS011;16815;51.100;6.516;2022-11-20T13:20:29;28.53;;;19.03;;
29958;SDS011;16815;51.100;6.516;2022-11-20T13:22:56;30.57;;;19.47;;
29958;SDS011;16815;51.100;6.516;2022-11-20T13:27:52;29.50;;;18.83;;
29958;SDS011;16815;51.100;6.516;2022-11-20T13:30:28;28.73;;;19.33;;
29958;SDS011;16815;51.100;6.516;2022-11-20T13:33:06;28.60;;;18.93;;
29958;SDS011;16815;51.100;6.516;2022-11-20T13:35:33;29.53;;;20.20;;
29958;SDS011;16815;51.100;6.516;2022-11-20T13:38:00;28.50;;;20.07;;
29958;SDS011;16815;51.100;6.516;2022-11-20T13:40:26;31.63;;;22.03;;
29958;SDS011;16815;51.100;6.516;2022-11-20T13:45:37;32.57;;;22.53;;
29958;SDS011;16815;51.100;6.516;2022-11-20T13:48:25;27.53;;;20.13;;
29958;SDS011;16815;51.100;6.516;2022-11-20T13:51:50;28.43;;;18.97;;
29958;SDS011;16815;51.100;6.516;2022-11-20T14:02:00;32.53;;;19.57;;
29958;SDS011;16815;51.100;6.516;2022-11-20T14:04:28;28.57;;;20.13;;
29958;SDS011;16815;51.100;6.516;2022-11-20T14:06:55;31.87;;;20.53;;
29958;SDS011;16815;51.100;6.516;2022-11-20T14:09:26;33.83;;;20.43;;
29958;SDS011;16815;51.100;6.516;2022-11-20T14:11:52;26.83;;;19.97;;
29958;SDS011;16815;51.100;6.516;2022-11-20T14:14:19;28.63;;;19.23;;
29958;SDS011;16815;51.100;6.516;2022-11-20T14:16:46;26.80;;;18.40;;
29958;SDS011;16815;51.100;6.516;2022-11-20T14:21:48;26.47;;;18.30;;
29958;SDS011;16815;51.100;6.516;2022-11-20T14:24:18;23.07;;;16.87;;
29958;SDS011;16815;51.100;6.516;2022-11-20T14:26:45;28.80;;;17.67;;
29958;SDS011;16815;51.100;6.516;2022-11-20T14:29:14;28.93;;;18.33;;
29958;SDS011;16815;51.100;6.516;2022-11-20T14:31:42;21.37;;;15.70;;
29958;SDS011;16815;51.100;6.516;2022-11-20T14:34:22;26.67;;;17.93;;
29958;SDS011;16815;51.100;6.516;2022-11-20T14:36:49;21.20;;;15.60;;
29958;SDS011;16815;51.100;6.516;2022-11-20T14:39:21;21.57;;;16.17;;
29958;SDS011;16815;51.100;6.516;2022-11-20T14:41:53;22.67;;;16.50;;
29958;SDS011;16815;51.100;6.516;2022-11-20T14:44:27;23.53;;;17.70;;
29958;SDS011;16815;51.100;6.516;2022-11-20T14:46:54;23.03;;;17.53;;
29958;SDS011;16815;51.100;6.516;2022-11-20T14:49:20;22.23;;;15.87;;
29958;SDS011;16815;51.100;6.516;2022-11-20T14:51:46;27.27;;;16.87;;
29958;SDS011;16815;51.100;6.516;2022-11-20T14:54:16;21.90;;;16.70;;
29958;SDS011;16815;51.100;6.516;2022-11-20T14:56:42;22.43;;;17.07;;
29958;SDS011;16815;51.100;6.516;2022-11-20T14:59:22;23.20;;;16.10;;
29958;SDS011;16815;51.100;6.516;2022-11-20T15:01:59;22.17;;;16.23;;
29958;SDS011;16815;51.100;6.516;2022-11-20T15:04:25;23.47;;;16.83;;
29958;SDS011;16815;51.100;6.516;2022-11-20T15:06:53;23.00;;;16.33;;
29958;SDS011;16815;51.100;6.516;2022-11-20T15:09:19;23.03;;;16.37;;
29958;SDS011;16815;51.100;6.516;2022-11-20T15:11:52;26.60;;;17.53;;
29958;SDS011;16815;51.100;6.516;2022-11-20T15:14:19;28.30;;;16.87;;
29958;SDS011;16815;51.100;6.516;2022-11-20T15:16:45;25.53;;;15.57;;
29958;SDS011;16815;51.100;6.516;2022-11-20T15:19:14;28.80;;;17.77;;
29958;SDS011;16815;51.100;6.516;2022-11-20T15:21:42;26.03;;;18.10;;
29958;SDS011;16815;51.100;6.516;2022-11-20T15:24:08;29.17;;;19.33;;
29958;SDS011;16815;51.100;6.516;2022-11-20T15:26:34;27.00;;;18.60;;
29958;SDS011;16815;51.100;6.516;2022-11-20T15:29:01;24.20;;;16.93;;
29958;SDS011;16815;51.100;6.516;2022-11-20T15:31:27;28.57;;;19.13;;
29958;SDS011;16815;51.100;6.516;2022-11-20T15:33:53;25.87;;;19.30;;
29958;SDS011;16815;51.100;6.516;2022-11-20T15:36:19;25.77;;;18.17;;
29958;SDS011;16815;51.100;6.516;2022-11-20T15:38:45;29.33;;;18.90;;
29958;SDS011;16815;51.100;6.516;2022-11-20T15:41:12;23.30;;;14.40;;